sensor_id;sensor_type;location;lat;lon;timestamp;pressure;altitude;pressure_sealevel;temperature;humidity
25560;BME280;13450;49.374;8.584;2024-03-08T00:01:54;100516.06;;;4.18;100.00
25560;BME280;13450;49.374;8.584;2024-03-08T00:04:22;100519.69;;;4.17;100.00
25560;BME280;13450;49.374;8.584;2024-03-08T00:06:47;100507.53;;;4.15;100.00
25560;BME280;13450;49.374;8.584;2024-03-08T00:09:13;100511.47;;;4.11;100.00
25560;BME280;13450;49.374;8.584;2024-03-08T00:11:38;100504.94;;;4.05;100.00
25560;BME280;13450;49.374;8.584;2024-03-08T00:14:04;100508.25;;;4.07;100.00
25560;BME280;13450;49.374;8.584;2024-03-08T00:16:32;100502.41;;;4.03;100.00
25560;BME280;13450;49.374;8.584;2024-03-08T00:18:59;100495.44;;;4.02;100.00
25560;BME280;13450;49.374;8.584;2024-03-08T00:21:25;100502.69;;;4.00;100.00
25560;BME280;13450;49.374;8.584;2024-03-08T00:23:52;100501.56;;;4.03;100.00
25560;BME280;13450;49.374;8.584;2024-03-08T00:26:19;100502.00;;;3.98;100.00
25560;BME280;13450;49.374;8.584;2024-03-08T00:28:44;100503.25;;;3.94;100.00
25560;BME280;13450;49.374;8.584;2024-03-08T00:31:12;100491.00;;;3.93;100.00
25560;BME280;13450;49.374;8.584;2024-03-08T00:33:37;100485.72;;;3.93;100.00
25560;BME280;13450;49.374;8.584;2024-03-08T00:36:04;100487.63;;;3.91;100.00
25560;BME280;13450;49.374;8.584;2024-03-08T00:38:30;100494.91;;;3.89;100.00
25560;BME280;13450;49.374;8.584;2024-03-08T00:40:56;100487.38;;;3.84;100.00
25560;BME280;13450;49.374;8.584;2024-03-08T00:43:22;100484.84;;;3.83;100.00
25560;BME280;13450;49.374;8.584;2024-03-08T00:45:49;100474.25;;;3.83;100.00
25560;BME280;13450;49.374;8.584;2024-03-08T00:48:14;100478.31;;;3.77;100.00
25560;BME280;13450;49.374;8.584;2024-03-08T00:50:40;100482.22;;;3.73;100.00
25560;BME280;13450;49.374;8.584;2024-03-08T00:53:05;100479.00;;;3.69;100.00
25560;BME280;13450;49.374;8.584;2024-03-08T00:55:31;100479.97;;;3.68;100.00
25560;BME280;13450;49.374;8.584;2024-03-08T00:58:00;100478.44;;;3.65;100.00
25560;BME280;13450;49.374;8.584;2024-03-08T01:00:25;100476.50;;;3.58;100.00
25560;BME280;13450;49.374;8.584;2024-03-08T01:02:51;100471.22;;;3.58;100.00
25560;BME280;13450;49.374;8.584;2024-03-08T01:05:16;100470.50;;;3.56;100.00
25560;BME280;13450;49.374;8.584;2024-03-08T01:07:44;100470.63;;;3.54;100.00
25560;BME280;13450;49.374;8.584;2024-03-08T01:10:11;100462.84;;;3.52;100.00
25560;BME280;13450;49.374;8.584;2024-03-08T01:12:39;100460.22;;;3.52;100.00
25560;BME280;13450;49.374;8.584;2024-03-08T01:15:04;100459.75;;;3.47;100.00
25560;BME280;13450;49.374;8.584;2024-03-08T01:17:30;100461.72;;;3.45;100.00
25560;BME280;13450;49.374;8.584;2024-03-08T01:20:01;100459.63;;;3.39;100.00
25560;BME280;13450;49.374;8.584;2024-03-08T01:22:26;100457.25;;;3.36;100.00
25560;BME280;13450;49.374;8.584;2024-03-08T01:24:53;100449.47;;;3.34;100.00
25560;BME280;13450;49.374;8.584;2024-03-08T01:27:18;100457.94;;;3.28;100.00
25560;BME280;13450;49.374;8.584;2024-03-08T01:29:43;100437.19;;;3.23;100.00
25560;BME280;13450;49.374;8.584;2024-03-08T01:32:09;100443.47;;;3.22;100.00
25560;BME280;13450;49.374;8.584;2024-03-08T01:34:39;100437.75;;;3.17;100.00
25560;BME280;13450;49.374;8.584;2024-03-08T01:37:05;100438.00;;;3.14;100.00
25560;BME280;13450;49.374;8.584;2024-03-08T01:39:36;100430.22;;;3.12;100.00
25560;BME280;13450;49.374;8.584;2024-03-08T01:42:01;100416.44;;;3.09;100.00
25560;BME280;13450;49.374;8.584;2024-03-08T01:44:29;100422.97;;;3.05;100.00
25560;BME280;13450;49.374;8.584;2024-03-08T01:46:55;100423.94;;;3.04;100.00
25560;BME280;13450;49.374;8.584;2024-03-08T01:49:21;100415.88;;;3.05;100.00
25560;BME280;13450;49.374;8.584;2024-03-08T01:51:48;100420.72;;;3.00;100.00
25560;BME280;13450;49.374;8.584;2024-03-08T01:54:19;100415.84;;;2.95;100.00
25560;BME280;13450;49.374;8.584;2024-03-08T01:56:45;100414.31;;;2.93;100.00
25560;BME280;13450;49.374;8.584;2024-03-08T01:59:11;100412.78;;;2.90;100.00
25560;BME280;13450;49.374;8.584;2024-03-08T02:01:37;100410.25;;;2.88;100.00
25560;BME280;13450;49.374;8.584;2024-03-08T02:04:03;100402.34;;;2.88;100.00
25560;BME280;13450;49.374;8.584;2024-03-08T02:06:28;100392.59;;;2.89;100.00
25560;BME280;13450;49.374;8.584;2024-03-08T02:08:54;100389.97;;;2.89;100.00
25560;BME280;13450;49.374;8.584;2024-03-08T02:11:20;100385.63;;;2.88;100.00
25560;BME280;13450;49.374;8.584;2024-03-08T02:13:46;100386.88;;;2.84;100.00
25560;BME280;13450;49.374;8.584;2024-03-08T02:16:11;100395.91;;;2.81;100.00
25560;BME280;13450;49.374;8.584;2024-03-08T02:18:36;100384.22;;;2.84;100.00
25560;BME280;13450;49.374;8.584;2024-03-08T02:21:05;100384.22;;;2.84;100.00
25560;BME280;13450;49.374;8.584;2024-03-08T02:23:31;100381.03;;;2.80;100.00
25560;BME280;13450;49.374;8.584;2024-03-08T02:25:57;100390.75;;;2.80;100.00
25560;BME280;13450;49.374;8.584;2024-03-08T02:28:23;100388.09;;;2.80;100.00
25560;BME280;13450;49.374;8.584;2024-03-08T02:30:52;100383.81;;;2.79;100.00
25560;BME280;13450;49.374;8.584;2024-03-08T02:33:21;100375.19;;;2.77;100.00
25560;BME280;13450;49.374;8.584;2024-03-08T02:35:48;100370.88;;;2.76;100.00
25560;BME280;13450;49.374;8.584;2024-03-08T02:38:21;100367.50;;;2.73;100.00
25560;BME280;13450;49.374;8.584;2024-03-08T02:40:49;100372.81;;;2.73;100.00
25560;BME280;13450;49.374;8.584;2024-03-08T02:43:15;100373.78;;;2.72;100.00
25560;BME280;13450;49.374;8.584;2024-03-08T02:45:44;100364.44;;;2.68;100.00
25560;BME280;13450;49.374;8.584;2024-03-08T02:48:15;100370.00;;;2.65;100.00
25560;BME280;13450;49.374;8.584;2024-03-08T02:50:41;100369.31;;;2.63;100.00
25560;BME280;13450;49.374;8.584;2024-03-08T02:53:11;100365.25;;;2.59;100.00
25560;BME280;13450;49.374;8.584;2024-03-08T02:55:40;100363.59;;;2.58;100.00
25560;BME280;13450;49.374;8.584;2024-03-08T02:58:08;100357.59;;;2.56;100.00
25560;BME280;13450;49.374;8.584;2024-03-08T03:00:35;100353.53;;;2.52;100.00
25560;BME280;13450;49.374;8.584;2024-03-08T03:03:00;100362.44;;;2.51;100.00
25560;BME280;13450;49.374;8.584;2024-03-08T03:05:28;100357.41;;;2.47;100.00
25560;BME280;13450;49.374;8.584;2024-03-08T03:07:53;100355.19;;;2.43;100.00
25560;BME280;13450;49.374;8.584;2024-03-08T03:10:19;100360.59;;;2.41;100.00
25560;BME280;13450;49.374;8.584;2024-03-08T03:12:48;100351.16;;;2.39;100.00
25560;BME280;13450;49.374;8.584;2024-03-08T03:15:14;100348.63;;;2.37;100.00
25560;BME280;13450;49.374;8.584;2024-03-08T03:17:45;100349.63;;;2.36;100.00
25560;BME280;13450;49.374;8.584;2024-03-08T03:20:14;100344.34;;;2.36;100.00
25560;BME280;13450;49.374;8.584;2024-03-08T03:22:40;100337.38;;;2.35;100.00
25560;BME280;13450;49.374;8.584;2024-03-08T03:25:12;100337.63;;;2.32;100.00
25560;BME280;13450;49.374;8.584;2024-03-08T03:27:37;100336.09;;;2.29;100.00
25560;BME280;13450;49.374;8.584;2024-03-08T03:30:04;100334.16;;;2.31;100.00
25560;BME280;13450;49.374;8.584;2024-03-08T03:32:51;100337.78;;;2.30;100.00
25560;BME280;13450;49.374;8.584;2024-03-08T03:35:20;100340.41;;;2.30;100.00
25560;BME280;13450;49.374;8.584;2024-03-08T03:37:51;100334.03;;;2.33;100.00
25560;BME280;13450;49.374;8.584;2024-03-08T03:40:29;100335.97;;;2.31;100.00
25560;BME280;13450;49.374;8.584;2024-03-08T03:42:56;100326.50;;;2.28;100.00
25560;BME280;13450;49.374;8.584;2024-03-08T03:45:24;100333.34;;;2.31;100.00
25560;BME280;13450;49.374;8.584;2024-03-08T03:47:52;100329.41;;;2.25;100.00
25560;BME280;13450;49.374;8.584;2024-03-08T03:50:18;100315.66;;;2.21;100.00
25560;BME280;13450;49.374;8.584;2024-03-08T03:52:47;100318.97;;;2.24;100.00
25560;BME280;13450;49.374;8.584;2024-03-08T03:55:13;100323.69;;;2.20;100.00
25560;BME280;13450;49.374;8.584;2024-03-08T03:57:39;100313.41;;;2.17;100.00
25560;BME280;13450;49.374;8.584;2024-03-08T04:00:05;100315.91;;;2.18;100.00
25560;BME280;13450;49.374;8.584;2024-03-08T04:02:31;100310.63;;;2.18;100.00
25560;BME280;13450;49.374;8.584;2024-03-08T04:04:56;100305.59;;;2.15;100.00
25560;BME280;13450;49.374;8.584;2024-03-08T04:07:22;100307.56;;;2.13;100.00
25560;BME280;13450;49.374;8.584;2024-03-08T04:09:49;100312.84;;;2.13;100.00
25560;BME280;13450;49.374;8.584;2024-03-08T04:12:19;100308.38;;;2.14;100.00
25560;BME280;13450;49.374;8.584;2024-03-08T04:14:48;100299.75;;;2.12;100.00
25560;BME280;13450;49.374;8.584;2024-03-08T04:17:18;100306.16;;;2.09;100.00
25560;BME280;13450;49.374;8.584;2024-03-08T04:19:46;100300.03;;;2.08;100.00
25560;BME280;13450;49.374;8.584;2024-03-08T04:22:13;100295.16;;;2.04;100.00
25560;BME280;13450;49.374;8.584;2024-03-08T04:24:38;100298.06;;;2.01;100.00
25560;BME280;13450;49.374;8.584;2024-03-08T04:27:05;100297.19;;;2.00;100.00
25560;BME280;13450;49.374;8.584;2024-03-08T04:29:31;100291.91;;;2.00;100.00
25560;BME280;13450;49.374;8.584;2024-03-08T04:31:57;100295.66;;;1.98;100.00
25560;BME280;13450;49.374;8.584;2024-03-08T04:34:23;100294.44;;;2.02;100.00
25560;BME280;13450;49.374;8.584;2024-03-08T04:36:49;100294.25;;;1.93;100.00
25560;BME280;13450;49.374;8.584;2024-03-08T04:39:15;100289.94;;;1.92;100.00
25560;BME280;13450;49.374;8.584;2024-03-08T04:41:41;100283.13;;;1.90;100.00
25560;BME280;13450;49.374;8.584;2024-03-08T04:44:09;100277.72;;;1.91;100.00
25560;BME280;13450;49.374;8.584;2024-03-08T04:46:35;100282.16;;;1.91;100.00
25560;BME280;13450;49.374;8.584;2024-03-08T04:49:03;100274.38;;;1.89;100.00
25560;BME280;13450;49.374;8.584;2024-03-08T04:51:28;100277.84;;;1.90;100.00
25560;BME280;13450;49.374;8.584;2024-03-08T04:53:53;100280.63;;;1.88;100.00
25560;BME280;13450;49.374;8.584;2024-03-08T04:56:18;100275.47;;;1.87;100.00
25560;BME280;13450;49.374;8.584;2024-03-08T04:58:44;100281.84;;;1.84;100.00
25560;BME280;13450;49.374;8.584;2024-03-08T05:01:11;100274.91;;;1.83;100.00
25560;BME280;13450;49.374;8.584;2024-03-08T05:03:37;100267.00;;;1.83;100.00
25560;BME280;13450;49.374;8.584;2024-03-08T05:06:03;100264.91;;;1.77;100.00
25560;BME280;13450;49.374;8.584;2024-03-08T05:08:29;100263.19;;;1.76;100.00
25560;BME280;13450;49.374;8.584;2024-03-08T05:10:54;100266.94;;;1.73;100.00
25560;BME280;13450;49.374;8.584;2024-03-08T05:13:22;100269.72;;;1.72;100.00
25560;BME280;13450;49.374;8.584;2024-03-08T05:15:49;100268.47;;;1.76;100.00
25560;BME280;13450;49.374;8.584;2024-03-08T05:18:17;100269.13;;;1.68;100.00
25560;BME280;13450;49.374;8.584;2024-03-08T05:20:42;100273.31;;;1.70;100.00
25560;BME280;13450;49.374;8.584;2024-03-08T05:23:08;100270.13;;;1.67;100.00
25560;BME280;13450;49.374;8.584;2024-03-08T05:25:34;100262.44;;;1.64;100.00
25560;BME280;13450;49.374;8.584;2024-03-08T05:28:01;100263.44;;;1.63;100.00
25560;BME280;13450;49.374;8.584;2024-03-08T05:30:26;100264.78;;;1.57;100.00
25560;BME280;13450;49.374;8.584;2024-03-08T05:32:52;100262.25;;;1.55;100.00
25560;BME280;13450;49.374;8.584;2024-03-08T05:35:18;100259.50;;;1.57;100.00
25560;BME280;13450;49.374;8.584;2024-03-08T05:37:43;100266.72;;;1.55;100.00
25560;BME280;13450;49.374;8.584;2024-03-08T05:40:09;100261.44;;;1.55;100.00
25560;BME280;13450;49.374;8.584;2024-03-08T05:42:42;100259.50;;;1.57;100.00
25560;BME280;13450;49.374;8.584;2024-03-08T05:45:08;100249.22;;;1.54;100.00
25560;BME280;13450;49.374;8.584;2024-03-08T05:47:36;100258.94;;;1.53;100.00
25560;BME280;13450;49.374;8.584;2024-03-08T05:50:01;100257.28;;;1.52;100.00
25560;BME280;13450;49.374;8.584;2024-03-08T05:52:27;100257.41;;;1.51;100.00
25560;BME280;13450;49.374;8.584;2024-03-08T05:54:52;100260.03;;;1.51;100.00
25560;BME280;13450;49.374;8.584;2024-03-08T05:57:18;100251.03;;;1.53;100.00
25560;BME280;13450;49.374;8.584;2024-03-08T05:59:43;100257.28;;;1.52;100.00
25560;BME280;13450;49.374;8.584;2024-03-08T06:02:09;100249.59;;;1.49;100.00
25560;BME280;13450;49.374;8.584;2024-03-08T06:04:34;100246.13;;;1.49;100.00
25560;BME280;13450;49.374;8.584;2024-03-08T06:07:00;100245.88;;;1.52;100.00
25560;BME280;13450;49.374;8.584;2024-03-08T06:09:29;100246.72;;;1.52;100.00
25560;BME280;13450;49.374;8.584;2024-03-08T06:11:55;100244.91;;;1.53;100.00
25560;BME280;13450;49.374;8.584;2024-03-08T06:14:20;100244.22;;;1.51;100.00
25560;BME280;13450;49.374;8.584;2024-03-08T06:16:46;100243.09;;;1.53;100.00
25560;BME280;13450;49.374;8.584;2024-03-08T06:19:12;100249.06;;;1.55;100.00
25560;BME280;13450;49.374;8.584;2024-03-08T06:21:39;100249.78;;;1.58;100.00
25560;BME280;13450;49.374;8.584;2024-03-08T06:24:04;100238.16;;;1.60;100.00
25560;BME280;13450;49.374;8.584;2024-03-08T06:26:30;100244.09;;;1.62;100.00
25560;BME280;13450;49.374;8.584;2024-03-08T06:28:55;100235.94;;;1.65;100.00
25560;BME280;13450;49.374;8.584;2024-03-08T06:31:21;100245.53;;;1.66;100.00
25560;BME280;13450;49.374;8.584;2024-03-08T06:33:51;100242.63;;;1.69;100.00
25560;BME280;13450;49.374;8.584;2024-03-08T06:36:19;100246.00;;;1.72;100.00
25560;BME280;13450;49.374;8.584;2024-03-08T06:38:49;100239.59;;;1.74;100.00
25560;BME280;13450;49.374;8.584;2024-03-08T06:41:15;100239.44;;;1.76;100.00
25560;BME280;13450;49.374;8.584;2024-03-08T06:43:44;100246.28;;;1.78;100.00
25560;BME280;13450;49.374;8.584;2024-03-08T06:46:10;100242.56;;;1.81;100.00
25560;BME280;13450;49.374;8.584;2024-03-08T06:48:40;100247.97;;;1.89;100.00
25560;BME280;13450;49.374;8.584;2024-03-08T06:51:08;100244.94;;;1.94;100.00
25560;BME280;13450;49.374;8.584;2024-03-08T06:53:34;100249.84;;;1.99;100.00
25560;BME280;13450;49.374;8.584;2024-03-08T06:56:04;100245.25;;;2.01;100.00
25560;BME280;13450;49.374;8.584;2024-03-08T06:58:29;100245.94;;;2.03;100.00
25560;BME280;13450;49.374;8.584;2024-03-08T07:00:55;100252.63;;;2.07;100.00
25560;BME280;13450;49.374;8.584;2024-03-08T07:03:23;100246.13;;;2.11;100.00
25560;BME280;13450;49.374;8.584;2024-03-08T07:05:49;100242.38;;;2.14;100.00
25560;BME280;13450;49.374;8.584;2024-03-08T07:08:14;100248.22;;;2.17;100.00
25560;BME280;13450;49.374;8.584;2024-03-08T07:10:40;100243.13;;;2.26;100.00
25560;BME280;13450;49.374;8.584;2024-03-08T07:13:10;100256.88;;;2.29;100.00
25560;BME280;13450;49.374;8.584;2024-03-08T07:15:36;100248.25;;;2.37;100.00
25560;BME280;13450;49.374;8.584;2024-03-08T07:18:04;100251.47;;;2.41;100.00
25560;BME280;13450;49.374;8.584;2024-03-08T07:20:49;100243.13;;;2.45;100.00
25560;BME280;13450;49.374;8.584;2024-03-08T07:23:15;100242.88;;;2.48;100.00
25560;BME280;13450;49.374;8.584;2024-03-08T07:26:00;100238.69;;;2.56;100.00
25560;BME280;13450;49.374;8.584;2024-03-08T07:28:26;100236.47;;;2.61;100.00
25560;BME280;13450;49.374;8.584;2024-03-08T07:30:52;100236.91;;;2.66;100.00
25560;BME280;13450;49.374;8.584;2024-03-08T07:33:28;100233.72;;;2.72;100.00
25560;BME280;13450;49.374;8.584;2024-03-08T07:35:54;100236.78;;;2.78;100.00
25560;BME280;13450;49.374;8.584;2024-03-08T07:38:19;100244.28;;;2.82;100.00
25560;BME280;13450;49.374;8.584;2024-03-08T07:40:46;100237.59;;;2.88;100.00
25560;BME280;13450;49.374;8.584;2024-03-08T07:43:13;100241.63;;;2.92;100.00
25560;BME280;13450;49.374;8.584;2024-03-08T07:45:39;100235.94;;;2.97;100.00
25560;BME280;13450;49.374;8.584;2024-03-08T07:48:07;100236.22;;;3.04;100.00
25560;BME280;13450;49.374;8.584;2024-03-08T07:50:37;100233.13;;;3.08;100.00
25560;BME280;13450;49.374;8.584;2024-03-08T07:53:09;100237.28;;;3.11;100.00
25560;BME280;13450;49.374;8.584;2024-03-08T07:55:35;100230.47;;;3.18;100.00
25560;BME280;13450;49.374;8.584;2024-03-08T07:58:05;100224.19;;;3.19;100.00
25560;BME280;13450;49.374;8.584;2024-03-08T08:00:31;100217.38;;;3.26;100.00
25560;BME280;13450;49.374;8.584;2024-03-08T08:02:57;100215.69;;;3.35;100.00
25560;BME280;13450;49.374;8.584;2024-03-08T08:05:22;100211.63;;;3.41;100.00
25560;BME280;13450;49.374;8.584;2024-03-08T08:07:48;100209.78;;;3.51;100.00
25560;BME280;13450;49.374;8.584;2024-03-08T08:10:16;100208.81;;;3.52;100.00
25560;BME280;13450;49.374;8.584;2024-03-08T08:12:50;100208.81;;;3.52;100.00
25560;BME280;13450;49.374;8.584;2024-03-08T08:15:16;100204.47;;;3.61;100.00
25560;BME280;13450;49.374;8.584;2024-03-08T08:17:46;100216.56;;;3.64;100.00
25560;BME280;13450;49.374;8.584;2024-03-08T08:20:12;100224.09;;;3.69;100.00
25560;BME280;13450;49.374;8.584;2024-03-08T08:22:38;100208.75;;;3.72;100.00
25560;BME280;13450;49.374;8.584;2024-03-08T08:25:05;100206.47;;;3.77;100.00
25560;BME280;13450;49.374;8.584;2024-03-08T08:27:31;100208.94;;;3.89;100.00
25560;BME280;13450;49.374;8.584;2024-03-08T08:29:56;100208.22;;;3.97;100.00
25560;BME280;13450;49.374;8.584;2024-03-08T08:32:22;100200.22;;;4.07;100.00
25560;BME280;13450;49.374;8.584;2024-03-08T08:34:47;100200.00;;;4.18;100.00
25560;BME280;13450;49.374;8.584;2024-03-08T08:37:13;100200.31;;;4.33;100.00
25560;BME280;13450;49.374;8.584;2024-03-08T08:39:38;100202.44;;;4.48;100.00
25560;BME280;13450;49.374;8.584;2024-03-08T08:42:06;100199.88;;;4.56;100.00
25560;BME280;13450;49.374;8.584;2024-03-08T08:44:37;100210.78;;;4.71;100.00
25560;BME280;13450;49.374;8.584;2024-03-08T08:47:02;100206.59;;;4.87;100.00
25560;BME280;13450;49.374;8.584;2024-03-08T08:49:29;100197.13;;;5.02;100.00
25560;BME280;13450;49.374;8.584;2024-03-08T08:51:56;100195.81;;;5.06;100.00
25560;BME280;13450;49.374;8.584;2024-03-08T08:54:23;100195.88;;;5.15;100.00
25560;BME280;13450;49.374;8.584;2024-03-08T08:56:52;100189.94;;;5.21;100.00
25560;BME280;13450;49.374;8.584;2024-03-08T08:59:20;100188.22;;;5.12;100.00
25560;BME280;13450;49.374;8.584;2024-03-08T09:01:48;100189.44;;;5.17;100.00
25560;BME280;13450;49.374;8.584;2024-03-08T09:04:13;100182.19;;;5.28;100.00
25560;BME280;13450;49.374;8.584;2024-03-08T09:06:44;100180.47;;;5.18;100.00
25560;BME280;13450;49.374;8.584;2024-03-08T09:09:10;100167.66;;;5.14;100.00
25560;BME280;13450;49.374;8.584;2024-03-08T09:11:38;100167.06;;;5.20;100.00
25560;BME280;13450;49.374;8.584;2024-03-08T09:14:07;100166.06;;;5.21;100.00
25560;BME280;13450;49.374;8.584;2024-03-08T09:16:32;100167.94;;;5.29;100.00
25560;BME280;13450;49.374;8.584;2024-03-08T09:19:00;100161.88;;;5.45;100.00
25560;BME280;13450;49.374;8.584;2024-03-08T09:21:33;100156.22;;;5.40;100.00
25560;BME280;13450;49.374;8.584;2024-03-08T09:24:03;100170.72;;;5.54;100.00
25560;BME280;13450;49.374;8.584;2024-03-08T09:26:29;100154.34;;;5.67;100.00
25560;BME280;13450;49.374;8.584;2024-03-08T09:28:55;100150.69;;;5.68;100.00
25560;BME280;13450;49.374;8.584;2024-03-08T09:31:21;100155.34;;;5.66;100.00
25560;BME280;13450;49.374;8.584;2024-03-08T09:33:47;100153.84;;;5.63;100.00
25560;BME280;13450;49.374;8.584;2024-03-08T09:36:13;100155.97;;;5.51;100.00
25560;BME280;13450;49.374;8.584;2024-03-08T09:38:39;100156.88;;;5.76;100.00
25560;BME280;13450;49.374;8.584;2024-03-08T09:41:07;100161.31;;;5.68;100.00
25560;BME280;13450;49.374;8.584;2024-03-08T09:43:34;100150.84;;;5.66;100.00
25560;BME280;13450;49.374;8.584;2024-03-08T09:46:00;100144.38;;;5.60;100.00
25560;BME280;13450;49.374;8.584;2024-03-08T09:48:28;100147.09;;;5.77;100.00
25560;BME280;13450;49.374;8.584;2024-03-08T09:50:56;100144.06;;;5.72;100.00
25560;BME280;13450;49.374;8.584;2024-03-08T09:53:25;100145.44;;;5.76;100.00
25560;BME280;13450;49.374;8.584;2024-03-08T09:55:51;100143.41;;;5.70;100.00
25560;BME280;13450;49.374;8.584;2024-03-08T09:58:19;100146.03;;;5.61;100.00
25560;BME280;13450;49.374;8.584;2024-03-08T10:00:45;100134.50;;;5.79;100.00
25560;BME280;13450;49.374;8.584;2024-03-08T10:03:10;100139.84;;;5.87;100.00
25560;BME280;13450;49.374;8.584;2024-03-08T10:05:36;100133.19;;;5.83;100.00
25560;BME280;13450;49.374;8.584;2024-03-08T10:08:02;100132.16;;;5.76;100.00
25560;BME280;13450;49.374;8.584;2024-03-08T10:10:34;100137.28;;;5.69;100.00
25560;BME280;13450;49.374;8.584;2024-03-08T10:12:59;100127.72;;;5.85;100.00
25560;BME280;13450;49.374;8.584;2024-03-08T10:15:27;100131.22;;;6.02;100.00
25560;BME280;13450;49.374;8.584;2024-03-08T10:17:55;100124.97;;;6.11;100.00
25560;BME280;13450;49.374;8.584;2024-03-08T10:20:21;100125.28;;;6.08;100.00
25560;BME280;13450;49.374;8.584;2024-03-08T10:22:49;100124.81;;;6.21;100.00
25560;BME280;13450;49.374;8.584;2024-03-08T10:25:14;100122.56;;;6.00;100.00
25560;BME280;13450;49.374;8.584;2024-03-08T10:27:40;100124.25;;;6.01;100.00
25560;BME280;13450;49.374;8.584;2024-03-08T10:30:10;100123.22;;;5.94;100.00
25560;BME280;13450;49.374;8.584;2024-03-08T10:32:37;100120.91;;;5.91;100.00
25560;BME280;13450;49.374;8.584;2024-03-08T10:35:03;100117.81;;;6.04;100.00
25560;BME280;13450;49.374;8.584;2024-03-08T10:37:29;100116.66;;;6.06;100.00
25560;BME280;13450;49.374;8.584;2024-03-08T10:40:03;100124.31;;;6.18;100.00
25560;BME280;13450;49.374;8.584;2024-03-08T10:42:54;100109.06;;;6.28;100.00
25560;BME280;13450;49.374;8.584;2024-03-08T10:45:40;100108.53;;;6.24;100.00
25560;BME280;13450;49.374;8.584;2024-03-08T10:48:47;100092.41;;;6.84;100.00
25560;BME280;13450;49.374;8.584;2024-03-08T10:51:11;100104.31;;;7.13;100.00
25560;BME280;13450;49.374;8.584;2024-03-08T10:53:41;100097.59;;;7.26;100.00
25560;BME280;13450;49.374;8.584;2024-03-08T10:56:14;100093.44;;;7.31;99.61
25560;BME280;13450;49.374;8.584;2024-03-08T10:58:42;100082.91;;;7.78;99.08
25560;BME280;13450;49.374;8.584;2024-03-08T11:01:09;100090.53;;;8.13;96.16
25560;BME280;13450;49.374;8.584;2024-03-08T11:08:41;100083.16;;;9.89;79.67
25560;BME280;13450;49.374;8.584;2024-03-08T11:11:31;100072.94;;;9.93;76.64
25560;BME280;13450;49.374;8.584;2024-03-08T11:14:00;100069.13;;;10.02;76.43
25560;BME280;13450;49.374;8.584;2024-03-08T11:21:38;100071.78;;;9.80;74.58
25560;BME280;13450;49.374;8.584;2024-03-08T11:24:14;100062.78;;;9.66;74.89
25560;BME280;13450;49.374;8.584;2024-03-08T11:26:45;100062.97;;;9.13;78.48
25560;BME280;13450;49.374;8.584;2024-03-08T11:29:34;100063.63;;;9.67;77.54
25560;BME280;13450;49.374;8.584;2024-03-08T11:32:15;100046.72;;;10.03;75.75
25560;BME280;13450;49.374;8.584;2024-03-08T11:34:46;100039.06;;;11.70;68.92
25560;BME280;13450;49.374;8.584;2024-03-08T11:37:19;100040.00;;;13.84;59.24
25560;BME280;13450;49.374;8.584;2024-03-08T11:39:53;100036.75;;;15.82;50.50
25560;BME280;13450;49.374;8.584;2024-03-08T11:42:24;100032.31;;;17.44;44.73
25560;BME280;13450;49.374;8.584;2024-03-08T11:44:54;100038.16;;;18.67;39.71
25560;BME280;13450;49.374;8.584;2024-03-08T11:47:21;100028.53;;;19.66;36.49
25560;BME280;13450;49.374;8.584;2024-03-08T11:49:46;100039.69;;;19.70;37.56
25560;BME280;13450;49.374;8.584;2024-03-08T11:52:18;100035.78;;;20.97;34.17
25560;BME280;13450;49.374;8.584;2024-03-08T11:55:02;100026.59;;;20.60;33.05
25560;BME280;13450;49.374;8.584;2024-03-08T11:57:28;100020.78;;;22.57;33.88
25560;BME280;13450;49.374;8.584;2024-03-08T11:59:55;100010.66;;;21.53;31.25
25560;BME280;13450;49.374;8.584;2024-03-08T12:02:24;100010.72;;;22.05;31.25
25560;BME280;13450;49.374;8.584;2024-03-08T12:04:57;100012.75;;;21.20;32.21
25560;BME280;13450;49.374;8.584;2024-03-08T12:07:25;100000.84;;;21.37;31.70
25560;BME280;13450;49.374;8.584;2024-03-08T12:10:21;100001.91;;;21.25;32.00
25560;BME280;13450;49.374;8.584;2024-03-08T12:12:52;99990.28;;;22.24;30.49
25560;BME280;13450;49.374;8.584;2024-03-08T12:15:24;99984.13;;;22.99;30.04
25560;BME280;13450;49.374;8.584;2024-03-08T12:17:51;99971.97;;;23.27;29.60
25560;BME280;13450;49.374;8.584;2024-03-08T12:20:18;99970.03;;;24.61;30.69
25560;BME280;13450;49.374;8.584;2024-03-08T12:22:44;99974.00;;;23.00;29.25
25560;BME280;13450;49.374;8.584;2024-03-08T12:25:13;99968.44;;;23.66;30.30
25560;BME280;13450;49.374;8.584;2024-03-08T12:27:43;99963.19;;;23.75;27.12
25560;BME280;13450;49.374;8.584;2024-03-08T12:30:26;99967.09;;;23.69;28.13
25560;BME280;13450;49.374;8.584;2024-03-08T12:32:59;99961.44;;;23.89;28.66
25560;BME280;13450;49.374;8.584;2024-03-08T12:35:27;99957.50;;;23.71;31.94
25560;BME280;13450;49.374;8.584;2024-03-08T12:37:57;99954.34;;;23.03;29.00
25560;BME280;13450;49.374;8.584;2024-03-08T12:40:31;99950.81;;;24.17;29.14
25560;BME280;13450;49.374;8.584;2024-03-08T12:43:02;99944.69;;;23.27;27.94
25560;BME280;13450;49.374;8.584;2024-03-08T12:45:33;99943.41;;;23.88;27.40
25560;BME280;13450;49.374;8.584;2024-03-08T12:47:59;99939.44;;;22.85;27.60
25560;BME280;13450;49.374;8.584;2024-03-08T12:50:27;99930.53;;;24.24;27.71
25560;BME280;13450;49.374;8.584;2024-03-08T12:52:58;99925.16;;;23.49;29.35
25560;BME280;13450;49.374;8.584;2024-03-08T12:55:24;99917.13;;;23.23;27.69
25560;BME280;13450;49.374;8.584;2024-03-08T12:57:49;99904.81;;;23.36;27.68
25560;BME280;13450;49.374;8.584;2024-03-08T13:00:18;99909.31;;;24.64;28.20
25560;BME280;13450;49.374;8.584;2024-03-08T13:02:46;99902.75;;;25.76;25.99
25560;BME280;13450;49.374;8.584;2024-03-08T13:05:12;99886.16;;;25.86;28.85